• Join FlightAware (Why Join?)
  • Login
  • US Flag 
09:02AM EDT


 

Airport Tracker/Info


-or-


 

Live Flight TrackerFlight Track Log ✈ UAL270 ✈ 2013-Oct-14 ✈ KDEN - KBOI

Flight Track Log - Related Links

Times and Time Zones

All times are in EDT time to prevent confusion due to time zone crossing. See the UAL270 flight status page for this flight to view local times or setup timezone preferences in your user account.

Time Position Orientation Groundspeed Altitude Reporting Facility
EDT Latitude Longitude Course Direction KTS MPH feet Rate Location/Type
01:49PM 39.6333 -104.8500 317° Northwest 168 193 6,900  Level Denver TRACON
01:51PM 39.6920 -104.9904 299° West  Level Estimated
01:55PM 40.1684 -105.4673 317° Northwest  Level Estimated
01:58PM 40.0667 -105.9037 298° West  Level Estimated
01:59PM 40.1197 -106.0350 298° West  Level Estimated
02:00PM 40.1725 -106.1665 298° West  Level Estimated
02:01PM 40.2251 -106.2982 298° West  Level Estimated
02:02PM 40.2776 -106.4301 298° West  Level Estimated
02:03PM 40.3300 -106.5622 298° West  Level Estimated
02:04PM 40.3822 -106.6945 297° West  Level Estimated
02:05PM 40.4342 -106.8270 297° West  Level Estimated
02:06PM 40.4861 -106.9597 297° West  Level Estimated
02:07PM 40.5378 -107.0926 297° West  Level Estimated
02:08PM 40.5894 -107.2258 297° West  Level Estimated
02:09PM 40.6409 -107.3591 297° West  Level Estimated
02:10PM 40.6922 -107.4926 297° West  Level Estimated
02:11PM 40.7433 -107.6264 297° West  Level Estimated
02:12PM 40.7943 -107.7603 297° West  Level Estimated
02:13PM 40.8451 -107.8945 297° West  Level Estimated
02:14PM 40.8958 -108.0288 297° West  Level Estimated
02:15PM 40.9463 -108.1634 296° West  Level Estimated
02:16PM 40.9966 -108.2982 296° West  Level Estimated
02:17PM 41.0468 -108.4332 296° West  Level Estimated
02:18PM 41.0969 -108.5683 296° West  Level Estimated
02:19PM 41.1468 -108.7037 296° West  Level Estimated
02:20PM 41.1965 -108.8393 296° West  Level Estimated
02:21PM 41.2460 -108.9751 296° West  Level Estimated
02:22PM 41.2954 -109.1111 296° West  Level Estimated
02:23PM 41.3447 -109.2473 296° West  Level Estimated
02:24PM 41.3937 -109.3837 296° West  Level Estimated
02:25PM 41.4427 -109.5204 296° West  Level Estimated
02:26PM 41.4914 -109.6572 295° West  Level Estimated
02:27PM 41.5400 -109.7942 295° West  Level Estimated
02:28PM 41.5885 -109.9315 295° West  Level Estimated
02:29PM 41.6367 -110.0689 295° West  Level Estimated
02:30PM 41.6848 -110.2066 295° West  Level Estimated
02:31PM 41.7328 -110.3444 295° West  Level Estimated
02:32PM 41.7806 -110.4825 295° West  Level Estimated
02:33PM 41.8282 -110.6207 295° West  Level Estimated
02:34PM 41.8756 -110.7592 295° West  Level Estimated
02:35PM 41.9229 -110.8979 295° West  Level Estimated
02:36PM 41.9700 -111.0368 295° West  Level Estimated
02:37PM 42.0169 -111.1759 294° West  Level Estimated
02:38PM 42.0637 -111.3151 294° West  Level Estimated
02:39PM 42.1103 -111.4547 294° West  Level Estimated
02:40PM 42.1568 -111.5944 294° West  Level Estimated
02:41PM 42.2030 -111.7343 294° West  Level Estimated
02:42PM 42.2491 -111.8744 294° West  Level Estimated
02:43PM 42.2951 -112.0147 294° West  Level Estimated
02:44PM 42.3408 -112.1552 294° West  Level Estimated
02:45PM 42.3864 -112.2959 294° West  Level Estimated
02:46PM 42.4318 -112.4369 294° West  Level Estimated
02:47PM 42.4770 -112.5780 294° West  Level Estimated
02:48PM 42.5221 -112.7193 293° West  Level Estimated
02:49PM 42.5670 -112.8609 293° West  Level Estimated
02:50PM 42.6117 -113.0026 293° West  Level Estimated
02:51PM 42.6562 -113.1446 293° West  Level Estimated
02:52PM 42.7006 -113.2867 293° West  Level Estimated
02:53PM 42.7448 -113.4291 293° West  Level Estimated
02:54PM 42.7888 -113.5716 293° West  Level Estimated
02:55PM 42.8326 -113.7144 293° West  Level Estimated
02:56PM 42.8763 -113.8574 293° West  Level Estimated
02:57PM 42.9198 -114.0005 293° West  Level Estimated
02:58PM 42.9631 -114.1439 292° West  Level Estimated
02:59PM 43.0062 -114.2875 292° West  Level Estimated
03:00PM 43.0491 -114.4312 292° West  Level Estimated
03:01PM 43.0919 -114.5752 292° West  Level Estimated
03:02PM 43.1345 -114.7194 292° West  Level Estimated
03:03PM 43.1769 -114.8637 292° West  Level Estimated
03:04PM 43.2191 -115.0083 292° West  Level Estimated
03:05PM 43.2612 -115.1531 292° West  Level Estimated
03:06PM 43.3030 -115.2980 292° West  Level Estimated
03:07PM 43.3447 -115.4432 292° West  Level Estimated
03:08PM 43.3862 -115.5886 291° West  Level Estimated
03:09PM 43.4275 -115.7342 291° West  Level Estimated
03:10PM 43.4686 -115.8799 291° West  Level Estimated
03:11PM 43.5095 -116.0259 291° West  Level Estimated
03:12PM 43.5503 -116.1721 291° West  Level Estimated
03:13PM 43.5644 -116.2229 291° West  Level Estimated
03:14PM 43.5644 -116.2229 324° Northwest  Level Estimated
03:15PM 43.5644 -116.2229 324° Northwest  Level Estimated
03:16PM 43.5644 -116.2229 324° Northwest  Level Estimated
03:17PM 43.5644 -116.2229 324° Northwest  Level Estimated
03:18PM 43.5644 -116.2229 324° Northwest  Level Estimated
03:19PM 43.5644 -116.2229 324° Northwest  Level Estimated
03:20PM 43.5644 -116.2229 324° Northwest  Level Estimated
03:21PM 43.5644 -116.2229 324° Northwest  Level Estimated
03:22PM 43.5644 -116.2229 324° Northwest  Level Estimated
03:23PM 43.5644 -116.2229 324° Northwest  Level Estimated
03:24PM 43.5644 -116.2229 324° Northwest  Level Estimated
03:25PM 43.5644 -116.2229 324° Northwest  Level Estimated
03:26PM 43.5644 -116.2229 324° Northwest  Level Estimated
03:27PM 43.5644 -116.2229 324° Northwest  Level Estimated
03:28PM 43.5644 -116.2229 324° Northwest  Level Estimated
03:29PM 43.5644 -116.2229 324° Northwest  Level Estimated
03:30PM 43.5644 -116.2229 324° Northwest  Level Estimated
03:31PM 43.5644 -116.2229 324° Northwest  Level Estimated
03:32PM 43.5644 -116.2229 324° Northwest  Level Estimated
03:33PM 43.5644 -116.2229 324° Northwest  Level Estimated
03:34PM 43.5644 -116.2229 324° Northwest  Level Estimated